KK7N Weather Reports


Display with metric or nautical units.
time (UTC)temp
F
wind
direction
speed
MPH
gust
MPH
rain 1hr
in
rain 24hr
in
rain mn
in
humidity
%
barometer
mb
20201125023120 45 309 2.0 5.0 0.21 0.26 0.26 93 1014.7
20201125021615 45 310 4.0 13.0 0.21 0.24 0.24 93 1014.7
20201125020053 46 296 4.0 9.0 0.20 0.22 0.22 93 1014.6
20201125014554 47 332 8.0 17.0 0.15 0.16 0.16 93 1014.3
20201125013058 48 232 2.0 9.0 0.04 0.05 0.05 94 1013.2
20201125011653 48 147 0.0 2.0 0.03 0.03 0.03 93 1013.2
20201125010140 48 0 0.0 2.0 0.02 0.02 0.02 93 1013.1
20201125005554 48 147 0.0 3.0 0.01 0.01 0.01 92 1013.1
20201125005056 48 147 0.0 3.0 0.01 0.01 0.01 92 1013.2
20201125004632 48 147 0.0 4.0 0.01 0.01 0.01 92 1013.3
20201125004035 48 0 0.0 4.0 0.01 0.01 0.01 91 1013.4
20201125003539 48 157 1.0 4.0 0.01 0.01 0.01 91 1013.4
20201125003138 48 171 1.0 6.0 0.01 0.01 0.01 90 1013.4
20201125002042 49 184 1.0 10.0 0.00 0.00 0.00 88 1013.8
20201125001556 49 193 1.0 14.0 0.00 0.00 0.00 87 1013.9
20201125001041 50 200 5.0 14.0 0.00 0.00 0.00 86 1014.2
20201125000549 50 155 2.0 11.0 0.00 0.00 0.00 85 1014.2
20201125000137 50 198 2.0 12.0 0.00 0.00 0.00 85 1014.2
20201124235539 50 198 2.0 12.0 0.00 0.00 0.00 84 1014.2
20201124235044 50 196 2.0 9.0 0.00 0.00 0.00 84 1014.2
20201124234541 50 194 3.0 11.0 0.00 0.00 0.00 84 1014.3
20201124234050 50 192 4.0 12.0 0.00 0.00 0.00 83 1014.2
20201124233538 50 158 4.0 13.0 0.00 0.00 0.00 82 1014.1
20201124233051 50 211 4.0 13.0 0.00 0.00 0.00 82 1014.2
20201124232540 50 197 5.0 13.0 0.00 0.00 0.00 83 1014.3
20201124232042 50 192 5.0 13.0 0.00 0.00 0.00 84 1014.2
20201124231610 50 133 4.0 14.0 0.00 0.00 0.00 84 1014.3
20201124231036 49 197 5.0 14.0 0.00 0.00 0.00 85 1014.4
20201124230552 49 0 3.0 9.0 0.00 0.00 0.00 85 1014.5
20201124230124 49 171 1.0 8.0 0.00 0.00 0.00 86 1014.6
20201124225543 49 184 1.0 8.0 0.00 0.00 0.00 85 1014.9
20201124225035 49 207 4.0 11.0 0.00 0.00 0.00 85 1015.0
20201124224557 49 196 4.0 11.0 0.00 0.00 0.00 85 1015.0
20201124224039 49 132 2.0 8.0 0.00 0.00 0.00 85 1014.9
20201124223540 49 111 2.0 11.0 0.00 0.00 0.00 84 1014.9
20201124223054 50 198 2.0 13.0 0.00 0.00 0.00 82 1015.5
20201124222540 50 207 6.0 13.0 0.00 0.00 0.00 80 1015.8
20201124222044 50 205 4.0 14.0 0.00 0.00 0.00 79 1015.8
20201124221617 50 253 5.0 14.0 0.00 0.00 0.00 79 1015.8
20201124221044 50 225 3.0 13.0 0.00 0.00 0.00 78 1015.9
20201124220539 50 232 6.0 13.0 0.00 0.00 0.00 79 1015.9
20201124220131 50 232 6.0 11.0 0.00 0.00 0.00 81 1015.9
20201124215604 50 306 2.0 5.0 0.00 0.00 0.00 83 1015.9
20201124215046 50 0 1.0 4.0 0.00 0.00 0.00 84 1015.9
20201124214611 50 306 2.0 4.0 0.00 0.00 0.00 85 1015.9
20201124214037 50 305 1.0 4.0 0.00 0.00 0.00 86 1015.8
20201124213543 50 154 1.0 4.0 0.00 0.00 0.00 86 1015.9
20201124213108 50 154 0.0 2.0 0.00 0.00 0.00 86 1015.9
20201124212541 51 0 0.0 2.0 0.00 0.00 0.00 86 1015.9
20201124212110 50 0 0.0 3.0 0.00 0.00 0.00 86 1016.0
20201124211545 50 0 0.0 3.0 0.00 0.00 0.00 84 1016.0
20201124211052 51 154 0.0 3.0 0.00 0.00 0.00 85 1016.0
20201124210539 51 0 0.0 3.0 0.00 0.00 0.00 86 1016.2
20201124210149 50 154 0.0 3.0 0.00 0.00 0.00 87 1016.5
20201124205542 50 0 0.0 2.0 0.00 0.00 0.00 85 1016.6
20201124205039 50 0 0.0 2.0 0.00 0.00 0.00 85 1016.7
20201124204608 50 0 0.0 2.0 0.00 0.00 0.00 85 1016.8
20201124204046 50 154 0.0 1.0 0.00 0.00 0.00 84 1017.0
20201124203541 50 0 0.0 1.0 0.00 0.00 0.00 84 1016.9
20201124203119 50 0 0.0 2.0 0.00 0.00 0.00 85 1017.0
20201124202535 50 154 0.0 2.0 0.00 0.00 0.00 86 1017.2
20201124202041 49 0 0.0 2.0 0.00 0.00 0.00 89 1017.3
20201124201627 48 0 0.0 2.0 0.00 0.00 0.00 91 1017.4
20201124201038 48 0 0.0 1.0 0.00 0.00 0.00 92 1017.6
20201124200540 48 0 0.0 1.0 0.00 0.00 0.00 92 1017.7
20201124200152 48 0 0.0 1.0 0.00 0.00 0.00 92 1017.8
20201124195551 48 0 0.0 0.0 0.00 0.03 0.00 91 1018.0
20201124195036 48 0 0.0 0.0 0.00 0.03 0.00 92 1018.1
20201124194629 48 0 0.0 1.0 0.00 0.03 0.00 92 1018.2
20201124194040 48 0 0.0 2.0 0.00 0.03 0.00 92 1018.4
20201124193548 47 0 0.0 2.0 0.00 0.03 0.00 92 1018.5
20201124193130 47 0 0.0 0.0 0.00 0.03 0.00 93 1018.8
20201124192536 47 0 0.0 1.0 0.00 0.03 0.00 93 1018.8
20201124192043 47 0 0.0 1.0 0.00 0.03 0.00 93 1018.7
20201124191610 47 0 0.0 1.0 0.00 0.03 0.00 94 1018.8
20201124191052 47 0 0.0 0.0 0.00 0.03 0.00 93 1019.0
20201124190544 47 0 0.0 0.0 0.00 0.03 0.00 94 1019.1
20201124190048 47 0 0.0 1.0 0.00 0.03 0.00 94 1019.2
20201124185539 46 0 0.0 1.0 0.00 0.07 0.00 94 1019.2
20201124185100 46 0 0.0 1.0 0.00 0.07 0.00 94 1019.4
20201124184554 46 0 0.0 1.0 0.00 0.07 0.00 94 1019.4
20201124184036 46 154 0.0 1.0 0.00 0.07 0.00 94 1019.5
20201124183535 46 0 0.0 2.0 0.00 0.07 0.00 95 1019.7
20201124183048 46 0 0.0 2.0 0.00 0.07 0.00 95 1019.8
20201124182535 46 0 0.0 2.0 0.00 0.07 0.00 94 1019.8
20201124182034 46 154 0.0 2.0 0.00 0.07 0.00 95 1019.9
20201124181709 45 0 0.0 0.0 0.00 0.07 0.00 95 1020.0
20201124181040 45 0 0.0 1.0 0.00 0.07 0.00 95 1020.0
20201124180546 45 0 0.0 2.0 0.00 0.07 0.00 95 1020.1
20201124180114 45 0 0.0 2.0 0.00 0.07 0.00 96 1020.1
20201124175535 44 154 0.0 1.0 0.00 0.10 0.00 96 1020.1
20201124175042 44 0 0.0 2.0 0.00 0.10 0.00 96 1020.0
20201124174713 44 0 0.0 2.0 0.00 0.10 0.00 96 1020.2
20201124174039 43 154 0.0 1.0 0.00 0.10 0.00 96 1020.2
20201124173535 43 0 0.0 2.0 0.00 0.10 0.00 96 1020.3
20201124173125 43 0 0.0 2.0 0.00 0.10 0.00 96 1020.3
20201124172539 43 0 0.0 2.0 0.00 0.10 0.00 96 1020.1
20201124172036 43 0 0.0 2.0 0.00 0.10 0.00 96 1020.2
20201124171610 43 154 0.0 3.0 0.00 0.10 0.00 96 1020.2
20201124171038 43 154 0.0 3.0 0.00 0.10 0.00 95 1020.2
20201124170542 42 154 0.0 3.0 0.00 0.10 0.00 96 1020.4
20201124170116 42 0 0.0 3.0 0.00 0.10 0.00 96 1020.4
20201124165538 42 154 0.0 2.0 0.00 0.12 0.00 95 1020.5
20201124165042 42 0 0.0 3.0 0.00 0.12 0.00 95 1020.5
20201124164719 42 0 1.0 3.0 0.00 0.12 0.00 96 1020.4
20201124164035 42 154 1.0 4.0 0.00 0.12 0.00 96 1020.5
20201124163543 42 154 0.0 4.0 0.00 0.12 0.00 96 1020.6
20201124163116 41 154 1.0 6.0 0.00 0.12 0.00 96 1020.7
20201124162539 41 155 0.0 6.0 0.00 0.12 0.00 96 1020.9
20201124162035 41 155 1.0 4.0 0.00 0.12 0.00 96 1020.9
20201124161622 41 155 2.0 4.0 0.00 0.12 0.00 96 1021.0
20201124161045 41 155 1.0 3.0 0.00 0.12 0.00 96 1021.0
20201124160537 41 155 1.0 3.0 0.00 0.12 0.00 96 1021.1
20201124160128 41 0 0.0 2.0 0.00 0.12 0.00 96 1021.2
20201124155538 41 0 0.0 1.0 0.00 0.15 0.00 96 1021.1
20201124155035 41 0 0.0 2.0 0.00 0.15 0.00 96 1021.2
20201124154601 41 0 0.0 2.0 0.00 0.15 0.00 96 1021.1
20201124154052 41 0 0.0 3.0 0.00 0.15 0.00 96 1021.0
20201124153541 41 0 0.0 3.0 0.00 0.15 0.00 96 1021.0
20201124153107 41 156 0.0 3.0 0.00 0.15 0.00 96 1021.1
20201124152537 41 0 0.0 2.0 0.00 0.15 0.00 96 1021.1
20201124152040 40 156 0.0 3.0 0.00 0.15 0.00 96 1021.3
20201124151621 40 0 0.0 3.0 0.00 0.15 0.00 96 1021.3
20201124151036 40 156 0.0 2.0 0.00 0.15 0.00 96 1021.3
20201124150541 40 0 0.0 2.0 0.00 0.15 0.00 96 1021.3
20201124150100 40 156 0.0 2.0 0.00 0.15 0.00 96 1021.3
20201124145604 40 0 0.0 3.0 0.00 0.19 0.00 96 1021.4
20201124145040 40 0 0.0 3.0 0.00 0.19 0.00 96 1021.5
20201124144611 40 0 0.0 2.0 0.00 0.19 0.00 95 1021.6
20201124144043 40 156 0.0 2.0 0.00 0.19 0.00 95 1021.6
20201124143552 40 156 0.0 1.0 0.00 0.19 0.00 95 1021.7
20201124143129 40 0 0.0 1.0 0.00 0.19 0.00 95 1021.7
20201124142554 40 0 0.0 1.0 0.00 0.19 0.00 95 1021.8
20201124142039 40 156 0.0 1.0 0.00 0.19 0.00 96 1021.8
20201124141548 40 0 0.0 3.0 0.00 0.19 0.00 96 1021.8
20201124141035 40 0 1.0 3.0 0.00 0.19 0.00 95 1021.9
20201124140545 40 156 0.0 1.0 0.00 0.19 0.00 95 1021.7
20201124140203 40 0 0.0 1.0 0.00 0.19 0.00 96 1021.8
20201124135536 40 0 0.0 3.0 0.00 0.19 0.00 96 1021.8
20201124135056 40 156 0.0 3.0 0.00 0.19 0.00 96 1021.8
20201124134701 40 156 1.0 3.0 0.00 0.19 0.00 95 1021.8
20201124134058 39 156 0.0 2.0 0.00 0.19 0.00 95 1021.8
20201124133540 39 156 0.0 2.0 0.00 0.19 0.00 95 1022.0
20201124133053 40 0 0.0 2.0 0.00 0.19 0.00 95 1022.1
20201124132558 39 156 0.0 2.0 0.00 0.19 0.00 95 1022.1
20201124132040 39 0 0.0 2.0 0.00 0.19 0.00 95 1022.1
20201124131608 39 156 0.0 2.0 0.00 0.19 0.00 95 1022.2
20201124131043 39 156 1.0 2.0 0.00 0.19 0.00 95 1022.3
20201124130537 39 156 0.0 2.0 0.00 0.19 0.00 95 1022.3
20201124130111 39 0 0.0 2.0 0.00 0.19 0.00 95 1022.3
20201124125541 39 0 0.0 2.0 0.00 0.19 0.00 95 1022.3
20201124125115 39 0 0.0 3.0 0.00 0.19 0.00 96 1022.3
20201124124540 39 156 0.0 5.0 0.00 0.19 0.00 95 1022.3
20201124124035 38 156 0.0 5.0 0.00 0.19 0.00 95 1022.4
20201124123542 38 0 1.0 3.0 0.00 0.19 0.00 95 1022.3
20201124123159 38 0 0.0 3.0 0.00 0.19 0.00 95 1022.4
20201124122535 38 156 0.0 3.0 0.00 0.19 0.00 95 1022.5
20201124122106 38 156 0.0 2.0 0.00 0.19 0.00 95 1022.5
20201124121614 38 0 0.0 1.0 0.00 0.19 0.00 95 1022.5
20201124121110 37 156 0.0 1.0 0.00 0.19 0.00 95 1022.5
20201124120538 37 0 0.0 1.0 0.00 0.19 0.00 95 1022.6
20201124120128 37 0 0.0 0.0 0.00 0.19 0.00 95 1022.6
20201124115538 37 0 0.0 1.0 0.00 0.19 0.00 95 1022.6
20201124115038 37 0 0.0 1.0 0.00 0.19 0.00 95 1022.6
20201124114540 37 0 0.0 2.0 0.00 0.19 0.00 95 1022.6
20201124114106 37 156 0.0 2.0 0.00 0.19 0.00 95 1022.6
20201124113538 37 0 0.0 0.0 0.00 0.19 0.00 95 1022.5
20201124113147 37 0 0.0 2.0 0.00 0.19 0.00 95 1022.4
20201124112546 37 0 0.0 2.0 0.00 0.19 0.00 95 1022.5
20201124112057 37 0 0.0 1.0 0.00 0.19 0.00 95 1022.5
20201124111655 37 0 0.0 1.0 0.00 0.19 0.00 94 1022.4
20201124111036 37 0 0.0 2.0 0.00 0.19 0.00 94 1022.5
20201124110543 37 0 0.0 2.0 0.00 0.19 0.00 94 1022.7
20201124110114 37 156 0.0 3.0 0.00 0.19 0.00 95 1022.7
20201124105542 37 0 1.0 3.0 0.00 0.19 0.00 95 1022.7
20201124105105 37 0 0.0 2.0 0.00 0.19 0.00 95 1022.8
20201124104543 37 0 0.0 2.0 0.00 0.19 0.00 94 1022.8
20201124104039 37 0 0.0 2.0 0.00 0.19 0.00 94 1022.9
20201124103534 37 0 0.0 2.0 0.00 0.19 0.00 94 1022.9
20201124103107 37 156 0.0 2.0 0.00 0.19 0.00 94 1022.9
20201124102534 37 156 0.0 3.0 0.00 0.19 0.00 94 1022.9
20201124102041 37 0 0.0 3.0 0.00 0.19 0.00 94 1023.0
20201124101607 37 0 0.0 3.0 0.00 0.19 0.00 94 1022.9
20201124101114 37 0 0.0 3.0 0.00 0.19 0.00 94 1022.9
20201124100540 37 156 0.0 2.0 0.00 0.19 0.00 94 1023.0
20201124100130 37 0 0.0 2.0 0.00 0.19 0.00 94 1023.0
20201124095536 37 0 0.0 2.0 0.00 0.19 0.00 94 1023.0
20201124095037 37 156 0.0 2.0 0.00 0.19 0.00 94 1023.0
20201124094559 37 0 0.0 2.0 0.00 0.19 0.00 94 1023.0
20201124094041 37 156 0.0 2.0 0.00 0.19 0.00 93 1023.1
20201124093535 37 0 0.0 0.0 0.00 0.19 0.00 93 1023.0
20201124093043 37 0 0.0 2.0 0.00 0.19 0.00 93 1022.9
20201124092537 37 0 0.0 2.0 0.00 0.19 0.00 93 1022.8
20201124092102 37 156 0.0 2.0 0.00 0.19 0.00 93 1022.8
20201124091601 37 0 0.0 1.0 0.00 0.19 0.00 93 1022.8
20201124091034 37 0 0.0 1.0 0.00 0.19 0.00 93 1022.8
20201124090537 37 0 0.0 2.0 0.00 0.19 0.00 93 1022.8
20201124090121 37 0 0.0 2.0 0.00 0.19 0.00 93 1022.9
20201124085558 38 0 0.0 2.0 0.00 0.22 0.00 94 1022.9
20201124085045 38 156 0.0 2.0 0.00 0.22 0.00 93 1022.9
20201124084616 38 156 0.0 2.0 0.00 0.22 0.00 93 1022.9
20201124084045 38 0 0.0 2.0 0.00 0.22 0.00 93 1022.9
20201124083537 38 0 0.0 2.0 0.00 0.22 0.00 93 1023.0
20201124083125 38 0 0.0 2.0 0.00 0.22 0.00 93 1023.0
20201124082537 38 156 0.0 2.0 0.00 0.22 0.00 93 1023.1
20201124082052 38 0 0.0 1.0 0.00 0.22 0.00 93 1023.1
20201124081626 38 0 0.0 1.0 0.00 0.22 0.00 93 1023.2
20201124081052 38 0 0.0 0.0 0.00 0.22 0.00 93 1023.2
20201124080539 38 0 0.0 0.0 0.00 0.22 0.00 93 1023.2
20201124080152 38 0 0.0 0.0 0.00 0.22 0.00 93 1023.3
20201124075550 39 0 0.0 0.0 0.00 0.27 0.22 93 1023.3
20201124075035 39 0 0.0 0.0 0.00 0.27 0.22 93 1023.2
20201124074650 39 0 0.0 1.0 0.00 0.27 0.22 93 1023.2
20201124074041 39 0 0.0 1.0 0.00 0.27 0.22 93 1023.2
20201124073554 39 0 0.0 0.0 0.00 0.27 0.22 93 1023.1
20201124073055 39 0 0.0 0.0 0.00 0.27 0.22 93 1023.1
20201124072555 39 0 0.0 3.0 0.00 0.27 0.22 93 1023.0
20201124072036 39 0 0.0 3.0 0.00 0.27 0.22 93 1023.0
20201124071710 39 0 0.0 2.0 0.00 0.27 0.22 93 1022.9
20201124071040 40 0 0.0 2.0 0.00 0.27 0.22 93 1022.8
20201124070541 40 0 0.0 2.0 0.00 0.27 0.22 93 1022.8
20201124070106 40 0 0.0 2.0 0.00 0.27 0.22 93 1022.8
20201124065547 40 0 0.0 2.0 0.00 0.29 0.22 93 1022.8
20201124065037 40 0 0.0 2.0 0.00 0.29 0.22 92 1022.8
20201124064705 40 156 1.0 2.0 0.00 0.29 0.22 92 1022.8
20201124064053 40 0 0.0 1.0 0.00 0.29 0.22 93 1022.9
20201124063544 40 0 0.0 0.0 0.00 0.29 0.22 92 1022.9
20201124063239 40 0 0.0 0.0 0.00 0.29 0.22 92 1022.8
20201124062543 40 0 0.0 0.0 0.00 0.29 0.22 92 1022.9
20201124062044 41 0 0.0 0.0 0.00 0.29 0.22 92 1022.9
20201124061638 41 0 0.0 0.0 0.00 0.29 0.22 92 1022.9
20201124061043 41 0 0.0 0.0 0.00 0.29 0.22 92 1022.7
20201124060538 41 0 0.0 0.0 0.00 0.29 0.22 92 1022.6
20201124060224 41 0 0.0 0.0 0.00 0.29 0.22 93 1022.6
20201124055539 42 0 0.0 1.0 0.00 0.30 0.22 93 1022.5
20201124055100 42 0 0.0 2.0 0.00 0.30 0.22 93 1022.5
20201124054544 42 0 0.0 3.0 0.00 0.30 0.22 93 1022.4
20201124054043 42 156 0.0 3.0 0.00 0.30 0.22 93 1022.3
20201124053554 42 156 0.0 5.0 0.00 0.30 0.22 93 1022.2
20201124053052 42 156 2.0 5.0 0.00 0.30 0.22 93 1022.2
20201124052538 42 156 2.0 5.0 0.00 0.30 0.22 93 1022.2
20201124052041 42 157 2.0 5.0 0.00 0.30 0.22 93 1022.2
20201124051655 42 159 1.0 7.0 0.00 0.30 0.22 93 1022.1
20201124051045 42 159 2.0 7.0 0.00 0.30 0.22 93 1022.2
20201124050540 42 174 1.0 4.0 0.00 0.30 0.22 93 1022.3
20201124050135 42 0 1.0 3.0 0.00 0.30 0.22 93 1022.2
20201124045540 42 175 0.0 2.0 0.00 0.30 0.22 93 1022.2
20201124045044 42 175 0.0 3.0 0.00 0.30 0.22 93 1022.2
20201124044639 43 175 1.0 3.0 0.00 0.30 0.22 94 1022.2
20201124044035 43 175 1.0 3.0 0.00 0.30 0.22 94 1022.2
20201124043543 43 175 0.0 3.0 0.00 0.30 0.22 94 1022.2
20201124043126 43 0 0.0 2.0 0.00 0.30 0.22 94 1022.2
20201124042548 43 175 0.0 4.0 0.00 0.30 0.22 94 1022.2
20201124042042 43 175 2.0 4.0 0.00 0.30 0.22 94 1022.1
20201124041557 42 188 0.0 3.0 0.00 0.30 0.22 94 1022.2
20201124041046 42 188 0.0 3.0 0.00 0.30 0.22 94 1022.2
20201124040549 43 188 0.0 3.0 0.00 0.30 0.22 94 1022.3
20201124040149 43 188 0.0 3.0 0.00 0.30 0.22 93 1022.2
20201124035559 43 188 1.0 3.0 0.00 0.30 0.22 93 1022.2
20201124035036 43 188 0.0 2.0 0.00 0.30 0.22 93 1022.3
20201124034626 43 188 0.0 2.0 0.00 0.30 0.22 93 1022.3
20201124034109 43 0 0.0 2.0 0.00 0.30 0.22 93 1022.3
20201124033534 43 188 0.0 2.0 0.00 0.30 0.22 93 1022.3
20201124033155 43 188 0.0 2.0 0.00 0.30 0.22 93 1022.3
20201124032537 43 188 0.0 2.0 0.00 0.30 0.22 93 1022.3
20201124032102 43 0 0.0 0.0 0.00 0.30 0.22 93 1022.2
20201124031701 43 0 0.0 1.0 0.00 0.30 0.22 93 1022.1
20201124031048 43 0 0.0 2.0 0.00 0.30 0.22 93 1022.1
20201124030539 43 188 0.0 3.0 0.00 0.30 0.22 93 1021.9
20201124030142 43 188 1.0 3.0 0.00 0.30 0.22 93 1021.9
20201124025535 43 189 1.0 3.0 0.00 0.30 0.22 93 1021.8
20201124025044 44 190 1.0 5.0 0.00 0.30 0.22 93 1021.9
20201124024557 44 190 1.0 5.0 0.00 0.30 0.22 93 1021.7